M I D A S
Marine Information and Data Acquisition System
Tripno 2261 of the Zeeleeuw from 2012-02-08 07:52:53 to 2012-02-08 13:34:05
Back to CruiseResearch ActivitiesStationsMapUnderway DataData graphs

EquipmentUnitsComment
TimeDGPSUTC
LatitudeDGPSDM.mWGS84
LongitudeDGPSDM.mWGS84
TemperatureSBE03/SBE38deg celciusITS90
ConductivitySBE21S/mITS90
SalinitySBE21 Practical Salinity Units
ChlorophylAChelsea fluorimeterg/lCalibrated in Aceton
Missing or incorrect values are displayed as -999
Sea surface data collected by the RV Zeeleeuw from 2012-02-08 07:32:44 to 2012-02-08 13:44:23
Time Latitude Longitude Temperature Conductivity Salinity ChlorophylA
2012-02-08 07:33:49 51°13.637 2°56.019 10.8197 0.070676 0.403105 -1.326982
2012-02-08 07:34:49 51°13.635 2°56.019 10.8103 0.070573 0.402476 -1.326982
2012-02-08 07:35:50 51°13.636 2°56.018 10.8398 0.070779 0.403681 -1.326982
2012-02-08 07:36:50 51°13.636 2°56.018 10.8401 0.070059 0.399405 -1.326982
2012-02-08 07:37:49 51°13.637 2°56.018 10.8354 0.071088 0.405464 -1.326982
2012-02-08 07:38:49 51°13.635 2°56.019 10.8402 0.07119 0.406048 -1.326982
2012-02-08 07:39:48 51°13.636 2°56.019 10.8537 0.071704 0.40906 -1.326982
2012-02-08 07:40:48 51°13.636 2°56.018 10.8546 0.069237 0.394467 -1.326982
2012-02-08 07:41:49 51°13.636 2°56.019 10.8733 0.071088 0.405381 -1.326982
2012-02-08 07:42:49 51°13.637 2°56.018 10.8716 0.070573 0.40231 -1.326982
2012-02-08 07:43:50 51°13.636 2°56.02 10.8775 0.070059 0.399256 -1.326982
2012-02-08 07:44:49 51°13.637 2°56.02 10.8755 0.070368 0.401052 -1.326982
2012-02-08 07:45:49 51°13.636 2°56.019 10.8814 0.070059 0.399211 -1.326982
2012-02-08 07:46:49 51°13.636 2°56.018 10.8862 0.070471 0.401621 -1.326982
2012-02-08 07:47:49 51°13.636 2°56.019 10.9639 0.064713 0.367667 -1.326982
2012-02-08 07:48:49 51°13.636 2°56.018 10.9407 0.060292 0.341724 -1.326982
2012-02-08 07:49:49 51°13.636 2°56.018 10.9761 0.060189 0.34111 -1.326982
2012-02-08 07:50:50 51°13.636 2°56.019 10.9518 0.059572 0.337475 -1.326982
2012-02-08 07:51:49 51°13.635 2°56.019 10.981 0.059572 0.337463 -1.326982
2012-02-08 07:52:49 51°13.636 2°56.006 10.8486 0.054945 0.310388 -1.326982
2012-02-08 07:53:49 51°13.655 2°55.92 10.9534 0.054842 0.309888 -1.326982
2012-02-08 07:54:50 51°13.689 2°55.811 10.9473 0.059983 0.339827 -1.326982
2012-02-08 07:55:48 51°13.753 2°55.71 10.9662 0.052478 0.296042 -1.326982
2012-02-08 07:56:50 51°13.842 2°55.631 11.0189 0.05001 0.281734 -1.326982
2012-02-08 07:57:49 51°13.932 2°55.626 10.9571 0.048365 0.272185 -1.326982
2012-02-08 07:58:49 51°13.976 2°55.651 10.9119 0.049393 0.278142 -1.326982
2012-02-08 07:59:50 51°14 2°55.565 10.6129 0.054328 0.306656 -1.326982
2012-02-08 08:00:50 51°14.105 2°55.447 10.5633 0.046515 0.261573 -1.326982
2012-02-08 08:01:49 51°14.231 2°55.322 10.4902 0.04343 0.243664 -1.326982
2012-02-08 08:02:49 51°14.364 2°55.192 10.4478 0.041579 0.233133 -1.326982
2012-02-08 08:03:50 51°14.505 2°55.033 10.5146 0.041888 0.234771 -1.326982
2012-02-08 08:04:49 51°14.62 2°54.809 10.4615 0.04271 0.23993 -1.326982
2012-02-08 08:05:49 51°14.609 2°54.507 10.3542 0.031298 0.175503 -1.326982
2012-02-08 08:06:48 51°14.499 2°54.224 10.1232 0.052889 0.300121 -1.326982
2012-02-08 08:07:46 51°14.385 2°53.933 10.2295 0.052067 0.29527 -1.326982
2012-02-08 08:08:46 51°14.26 2°53.632 10.2721 0.037981 0.213627 -1.326982
2012-02-08 08:09:46 51°14.131 2°53.336 10.2506 0.035 0.196773 -1.326982
2012-02-08 08:10:45 51°14.009 2°53.04 10.2518 0.046926 0.265447 -1.326982
2012-02-08 08:11:45 51°13.894 2°52.73 10.2675 0.050216 0.284499 -1.326982
2012-02-08 08:12:45 51°13.77 2°52.429 10.2796 0.047029 0.266067 -1.326982
2012-02-08 08:13:45 51°13.663 2°52.112 10.2892 0.063582 0.362757 -1.326982
2012-02-08 08:14:45 51°13.546 2°51.802 10.2876 0.051141 0.289954 -1.326982
2012-02-08 08:15:45 51°13.417 2°51.504 10.2942 0.053917 0.306146 -1.326982
2012-02-08 08:16:45 51°13.297 2°51.195 10.3014 0.035822 0.20137 -1.326982
2012-02-08 08:17:46 51°13.16 2°50.884 10.2817 0.088773 0.512689 -1.326982
2012-02-08 08:18:45 51°13.036 2°50.572 10.3302 0.083426 0.480555 -1.326982
2012-02-08 08:19:45 51°12.909 2°50.26 10.3345 0.042196 0.238021 -1.326982
2012-02-08 08:20:45 51°12.781 2°49.948 10.3286 0.107384 0.624939 -1.326982
2012-02-08 08:21:45 51°12.654 2°49.634 10.326 0.100392 0.582433 -1.326982
2012-02-08 08:22:45 51°12.53 2°49.321 10.3183 0.109337 0.63663 -1.326982
2012-02-08 08:23:45 51°12.421 2°49.005 10.3534 0.121368 0.709898 -1.326982
2012-02-08 08:24:45 51°12.311 2°48.687 10.3377 0.112525 0.656014 -1.326982
2012-02-08 08:25:45 51°12.199 2°48.364 10.402 0.039729 0.223764 -1.326982
2012-02-08 08:26:45 51°12.079 2°48.051 10.3985 0.078593 0.451544 -1.326982
2012-02-08 08:27:45 51°11.964 2°47.735 10.4314 0.046309 0.261635 -1.326982
2012-02-08 08:28:45 51°11.855 2°47.417 10.3829 0.07664 0.439805 -1.326982
2012-02-08 08:29:45 51°11.776 2°47.083 10.4081 0.043122 0.243269 -1.326982
2012-02-08 08:30:45 51°11.702 2°46.745 10.4532 0.04744 0.268175 -1.326982
2012-02-08 08:31:45 51°11.666 2°46.382 10.4152 0.06389 0.364261 -1.326982
2012-02-08 08:32:45 51°11.639 2°46.012 10.4424 0.047851 0.270559 -1.326982
2012-02-08 08:33:46 51°11.617 2°45.638 10.4578 0.042402 0.239023 -1.326982
2012-02-08 08:34:45 51°11.576 2°45.283 10.4868 0.050627 0.286653 -1.326982
2012-02-08 08:35:45 51°11.545 2°44.926 10.4804 0.069751 0.398833 -1.326982
2012-02-08 08:36:45 51°11.518 2°44.575 10.468 0.055768 0.316582 -1.326982
2012-02-08 08:37:45 51°11.493 2°44.22 10.4888 0.085996 0.495358 -1.326982
2012-02-08 08:38:45 51°11.479 2°43.873 10.4926 0.09998 0.579497 -1.326982
2012-02-08 08:39:45 51°11.469 2°43.529 10.49 0.079107 0.454307 -1.326982
2012-02-08 08:40:46 51°11.456 2°43.184 10.493 0.055357 0.314086 -1.326982
2012-02-08 08:41:45 51°11.439 2°42.846 10.5436 0.045692 0.257913 -1.326982
2012-02-08 08:42:45 51°11.385 2°42.516 10.5311 0.039729 0.22354 -1.326982
2012-02-08 08:43:45 51°11.298 2°42.201 10.5069 0.063273 0.360488 -1.326982
2012-02-08 08:44:45 51°11.215 2°41.875 10.515 0.038598 0.217051 -1.326982
2012-02-08 08:45:45 51°11.095 2°41.578 10.5337 0.04672 0.263841 -1.326982
2012-02-08 08:46:45 51°10.961 2°41.295 10.5719 0.061937 0.352585 -1.326982
2012-02-08 08:47:46 51°10.832 2°40.994 10.5197 0.068414 0.390725 -1.326982
2012-02-08 08:48:45 51°10.708 2°40.703 10.5738 0.043944 0.247738 -1.326982
2012-02-08 08:49:46 51°10.583 2°40.392 10.5095 0.055871 0.316923 -1.326982
2012-02-08 08:50:45 51°10.465 2°40.087 10.5222 0.088567 0.510595 -1.326982
2012-02-08 08:51:45 51°10.38 2°39.756 10.5447 0.078285 0.449088 -1.326982
2012-02-08 08:52:45 51°10.299 2°39.416 10.5444 0.067797 0.386988 -1.326982
2012-02-08 08:53:45 51°10.215 2°39.082 10.6057 0.047851 0.27028 -1.326982
2012-02-08 08:54:45 51°10.125 2°38.751 10.5445 0.065021 0.370589 -1.326982
2012-02-08 08:55:46 51°10.037 2°38.406 10.6066 0.044664 0.251839 -1.326982
2012-02-08 08:56:45 51°9.94 2°38.08 10.6107 0.052992 0.300075 -1.326982
2012-02-08 08:57:45 51°9.829 2°37.755 10.5628 0.096998 0.561005 -1.326982
2012-02-08 08:58:46 51°9.715 2°37.423 10.601 0.053917 0.305413 -1.326982
2012-02-08 08:59:45 51°9.614 2°37.096 10.6099 0.048674 0.274924 -1.326982
2012-02-08 09:00:45 51°9.506 2°36.764 10.5848 0.051347 0.29043 -1.326982
2012-02-08 09:01:45 51°9.399 2°36.428 10.6291 0.064199 0.365591 -1.326982
2012-02-08 09:02:45 51°9.287 2°36.095 10.6296 0.051038 0.288638 -1.326982
2012-02-08 09:03:46 51°9.181 2°35.758 10.6306 0.044047 0.248176 -1.326982
2012-02-08 09:04:45 51°9.069 2°35.44 10.6003 0.118694 0.692151 -1.326982
2012-02-08 09:05:46 51°8.957 2°35.109 10.6387 0.089287 0.514489 -1.326982
2012-02-08 09:06:45 51°8.85 2°34.785 10.637 0.045075 0.254068 -1.326982
2012-02-08 09:07:45 51°8.742 2°34.453 10.6474 0.064918 0.369687 -1.326982
2012-02-08 09:08:45 51°8.634 2°34.131 10.6574 0.110263 0.640837 -1.326982
2012-02-08 09:09:45 51°8.547 2°33.798 10.6727 0.056693 0.321495 -1.326982
2012-02-08 09:10:45 51°8.523 2°33.453 10.6826 0.108926 0.632701 -1.326982
2012-02-08 09:11:46 51°8.657 2°33.228 10.6624 0.17988 1.069403 -1.326982
2012-02-08 09:12:45 51°8.831 2°33.127 10.6956 0.102345 0.592791 -1.326982
2012-02-08 09:13:45 51°8.973 2°33.253 10.6829 0.050113 0.283099 -1.326982
2012-02-08 09:14:45 51°9.122 2°33.39 10.705 0.056076 0.317794 -1.326982
2012-02-08 09:15:45 51°9.268 2°33.555 10.7149 0.052375 0.296249 -1.326982
2012-02-08 09:16:45 51°9.388 2°33.766 10.7165 0.059264 0.336398 -1.326982
2012-02-08 09:17:45 51°9.516 2°33.96 10.7283 0.050113 0.283041 -1.326982
2012-02-08 09:18:45 51°9.65 2°34.149 10.7353 0.067489 0.384685 -1.326982
2012-02-08 09:19:45 51°9.785 2°34.343 10.7461 0.048057 0.271146 -1.326982
2012-02-08 09:20:45 51°9.91 2°34.546 10.7503 0.053403 0.302234 -1.326982
2012-02-08 09:21:46 51°10.038 2°34.746 10.7551 0.053095 0.300373 -1.326982
2012-02-08 09:22:45 51°10.171 2°34.932 10.765 0.058544 0.332176 -1.326982
2012-02-08 09:23:45 51°10.302 2°35.121 10.7699 0.054534 0.308814 -1.326982
2012-02-08 09:24:45 51°10.425 2°35.324 10.7793 0.047954 0.270576 -1.326982
2012-02-08 09:25:45 51°10.544 2°35.529 10.7794 0.060703 0.34482 -1.326982
2012-02-08 09:26:46 51°10.675 2°35.712 10.7841 0.045075 0.253919 -1.326982
2012-02-08 09:27:45 51°10.814 2°35.866 10.7925 0.04672 0.263409 -1.326982
2012-02-08 09:28:46 51°10.963 2°36.009 10.802 0.068106 0.388307 -1.326982
2012-02-08 09:29:45 51°11.104 2°36.168 10.8104 0.049085 0.277093 -1.326982
2012-02-08 09:30:46 51°11.255 2°36.317 10.8157 0.061526 0.349647 -1.326982
2012-02-08 09:31:45 51°11.396 2°36.47 10.8257 0.044253 0.249188 -1.326982
2012-02-08 09:32:46 51°11.54 2°36.644 10.8347 0.045486 0.256291 -1.326982
2012-02-08 09:33:45 51°11.686 2°36.8 10.8427 0.0606 0.344205 -1.326982
2012-02-08 09:34:45 51°11.836 2°36.948 10.8474 0.058647 0.332827 -1.326982
2012-02-08 09:35:45 51°11.98 2°37.104 10.853 0.045486 0.25632 -1.326982
2012-02-08 09:36:46 51°12.119 2°37.27 10.8606 0.049599 0.280066 -1.326982
2012-02-08 09:37:45 51°12.263 2°37.417 10.867 0.077771 0.44557 -1.326982
2012-02-08 09:38:46 51°12.404 2°37.57 10.8691 0.047645 0.268807 -1.326982
2012-02-08 09:39:46 51°12.544 2°37.731 10.8792 0.05145 0.290872 -1.326982
2012-02-08 09:40:45 51°12.691 2°37.88 10.8872 0.052066 0.294423 -1.326982
2012-02-08 09:41:46 51°12.836 2°38.037 10.8941 0.05001 0.282497 -1.326982
2012-02-08 09:42:45 51°12.977 2°38.206 10.9016 0.064918 0.369542 -1.326982
2012-02-08 09:43:45 51°13.124 2°38.361 10.9075 0.050113 0.283083 -1.326982
2012-02-08 09:44:45 51°13.276 2°38.514 10.9198 0.054226 0.307046 -1.326982
2012-02-08 09:45:46 51°13.424 2°38.688 10.9305 0.049599 0.280144 -1.326982
2012-02-08 09:46:46 51°13.567 2°38.857 10.9351 0.049599 0.280128 -1.326982
2012-02-08 09:47:45 51°13.696 2°39.046 10.9439 0.045281 0.255147 -1.326982
2012-02-08 09:48:45 51°13.831 2°39.243 10.9453 0.048262 0.272416 -1.326982
2012-02-08 09:49:45 51°13.973 2°39.416 10.9578 0.048057 0.271276 -1.326982
2012-02-08 09:50:45 51°14.11 2°39.6 10.9589 0.051141 0.289139 -1.326982
2012-02-08 09:51:47 51°14.237 2°39.795 10.9586 0.043739 0.246322 -1.326982
2012-02-08 09:52:45 51°14.367 2°39.967 10.9699 0.05001 0.282591 -1.326982
2012-02-08 09:53:46 51°14.517 2°40.145 10.9804 0.056899 0.322672 -1.326982
2012-02-08 09:54:45 51°14.655 2°40.327 10.9857 0.045486 0.256423 -1.326982
2012-02-08 09:55:46 51°14.785 2°40.52 10.9875 0.049085 0.277247 -1.326982
2012-02-08 09:56:45 51°14.915 2°40.692 10.9927 0.060189 0.341981 -1.326982
2012-02-08 09:57:45 51°15.055 2°40.864 11.006 0.059058 0.335407 -1.326982
2012-02-08 09:58:45 51°15.187 2°41.046 11.0112 0.055151 0.312583 -1.326982
2012-02-08 09:59:45 51°15.326 2°41.226 11.015 0.038701 0.217423 -1.326982
2012-02-08 10:00:45 51°15.497 2°41.251 11.0194 0.058235 0.330619 -1.326982
2012-02-08 10:01:46 51°15.676 2°41.21 11.0316 0.0679 0.387421 -1.326982
2012-02-08 10:02:46 51°15.852 2°41.157 11.0382 0.050833 0.287487 -1.326982
2012-02-08 10:03:45 51°16.021 2°41.042 11.049 0.054226 0.307228 -1.326982
2012-02-08 10:04:46 51°16.104 2°40.759 11.0483 0.066358 0.378371 -1.326982
2012-02-08 10:05:45 51°16.041 2°40.441 11.0453 0.064918 0.369894 -1.326982
2012-02-08 10:06:46 51°15.902 2°40.156 11.0561 0.055357 0.31387 -1.326982
2012-02-08 10:07:45 51°15.764 2°39.876 11.0607 0.04271 0.240575 -1.326982
2012-02-08 10:08:45 51°15.623 2°39.594 11.0563 0.058852 0.334347 -1.326982
2012-02-08 10:09:45 51°15.485 2°39.307 11.0731 0.039318 0.221056 -1.326982
2012-02-08 10:10:45 51°15.345 2°39.015 11.0819 0.037673 0.21163 -1.326982
2012-02-08 10:11:45 51°15.209 2°38.727 11.0825 0.056899 0.322936 -1.326982
2012-02-08 10:12:45 51°15.07 2°38.443 11.0936 0.059572 0.338563 -1.326982
2012-02-08 10:13:45 51°14.934 2°38.157 11.0958 0.041477 0.233457 -1.326982
2012-02-08 10:14:45 51°14.798 2°37.875 11.1055 0.049291 0.278629 -1.326982
2012-02-08 10:15:45 51°14.673 2°37.592 11.1073 0.056796 0.322377 -1.326982
2012-02-08 10:16:45 51°14.558 2°37.296 11.1161 0.113656 0.661939 -1.326982
2012-02-08 10:17:45 51°14.457 2°36.998 11.1178 0.056693 0.321788 -1.326982
2012-02-08 10:18:45 51°14.357 2°36.705 11.1483 0.057721 0.327795 -1.326982
2012-02-08 10:19:45 51°14.257 2°36.417 11.1311 0.039523 0.222295 -1.326982
2012-02-08 10:20:46 51°14.156 2°36.125 11.0571 0.052992 0.300175 -1.326982
2012-02-08 10:21:45 51°14.066 2°35.828 11.1122 0.056179 0.318772 -1.326982
2012-02-08 10:22:46 51°13.965 2°35.531 11.1284 0.057413 0.326027 -1.326982
2012-02-08 10:23:45 51°13.867 2°35.248 11.1188 0.179263 1.066793 -1.326982
2012-02-08 10:24:45 51°13.771 2°34.958 11.1671 0.091549 0.528455 -1.326982
2012-02-08 10:25:45 51°13.669 2°34.671 11.1584 0.086202 0.496428 -1.326982
2012-02-08 10:26:45 51°13.557 2°34.392 11.0951 0.144505 0.850974 -1.326982
2012-02-08 10:27:45 51°13.447 2°34.107 11.1805 0.057104 0.324199 -1.326982
2012-02-08 10:28:45 51°13.338 2°33.824 11.1906 0.053609 0.303797 -1.326982
2012-02-08 10:29:45 51°13.224 2°33.533 11.1739 0.073041 0.418045 -1.326982
2012-02-08 10:30:45 51°13.111 2°33.256 11.2024 0.087847 0.506245 -1.326982
2012-02-08 10:31:45 51°12.998 2°32.98 11.226 0.143065 0.842146 -1.326982
2012-02-08 10:32:45 51°12.877 2°32.705 11.197 0.135456 0.795335 -1.326982
2012-02-08 10:33:45 51°12.75 2°32.435 11.1327 0.396813 2.469889 -1.326982
2012-02-08 10:34:46 51°12.632 2°32.152 11.2025 0.12836 0.751703 -1.326982
2012-02-08 10:35:45 51°12.522 2°31.875 11.1288 0.208779 1.252386 -1.326982
2012-02-08 10:36:46 51°12.402 2°31.594 11.218 0.066049 0.376744 -1.326982
2012-02-08 10:37:45 51°12.281 2°31.331 11.1947 0.095559 0.552605 -1.326982
2012-02-08 10:38:46 51°12.159 2°31.059 11.2378 0.086099 0.495851 -1.326982
2012-02-08 10:39:45 51°12.045 2°30.781 11.2779 0.059161 0.336291 -1.326982
2012-02-08 10:40:45 51°11.925 2°30.511 11.2796 0.047029 0.265616 -1.326982
2012-02-08 10:41:45 51°11.807 2°30.243 11.2682 0.045589 0.257257 -1.326982
2012-02-08 10:42:45 51°11.691 2°29.979 11.2762 0.062142 0.353819 -1.326982
2012-02-08 10:43:45 51°11.579 2°29.715 11.2562 0.12291 0.718477 -1.326982
2012-02-08 10:44:45 51°11.515 2°29.416 11.2822 0.213716 1.283612 -1.326982
2012-02-08 10:45:46 51°11.472 2°29.108 11.2315 0.245907 1.488292 -1.326982
2012-02-08 10:46:45 51°11.436 2°28.815 11.1869 0.156434 0.924691 -1.326982
2012-02-08 10:47:46 51°11.405 2°28.518 11.2317 0.088258 0.508785 -1.326982
2012-02-08 10:48:46 51°11.384 2°28.232 11.285 0.132474 0.776969 -1.326982
2012-02-08 10:49:45 51°11.412 2°27.956 11.3233 0.100494 0.582424 -1.326982
2012-02-08 10:50:46 51°11.446 2°27.669 11.2528 0.106253 0.617187 -1.326982
2012-02-08 10:51:45 51°11.52 2°27.435 11.2882 0.320686 1.970497 -1.326982
2012-02-08 10:52:46 51°11.687 2°27.317 11.2802 0.127229 0.744851 -1.326982
2012-02-08 10:53:46 51°11.845 2°27.162 11.3555 0.111599 0.649571 -1.326982
2012-02-08 10:54:46 51°12.002 2°27.011 11.3073 0.234079 1.412826 -1.326982
2012-02-08 10:55:45 51°12.169 2°26.895 11.333 0.282112 1.720559 -1.326982
2012-02-08 10:56:45 51°12.362 2°26.919 11.3446 0.122293 0.714669 -1.326982
2012-02-08 10:57:45 51°12.552 2°27.033 11.3727 0.074275 0.4254 -1.326982
2012-02-08 10:58:45 51°12.731 2°27.186 11.3895 0.061937 0.352598 -1.326982
2012-02-08 10:59:46 51°12.899 2°27.377 11.3899 0.067797 0.387104 -1.326982
2012-02-08 11:00:46 51°13.052 2°27.569 11.4013 0.055562 0.315275 -1.326982
2012-02-08 11:01:46 51°13.19 2°27.762 11.4217 0.054637 0.309827 -1.326982
2012-02-08 11:02:47 51°13.329 2°27.924 11.4209 0.058852 0.334515 -1.326982
2012-02-08 11:03:46 51°13.475 2°28.092 11.4383 0.051964 0.294299 -1.326982
2012-02-08 11:04:45 51°13.613 2°28.272 11.4499 0.061834 0.352033 -1.326982
2012-02-08 11:05:46 51°13.755 2°28.458 11.4592 0.053917 0.305691 -1.326982
2012-02-08 11:06:46 51°13.901 2°28.633 11.4743 0.045589 0.257314 -1.326982
2012-02-08 11:07:46 51°14.047 2°28.798 11.4839 0.0679 0.387791 -1.326982
2012-02-08 11:08:45 51°14.189 2°28.971 11.4973 0.045486 0.256734 -1.326982
2012-02-08 11:09:46 51°14.334 2°29.153 11.5091 0.055254 0.31352 -1.326982
2012-02-08 11:10:45 51°14.473 2°29.334 11.5166 0.045795 0.258555 -1.326982
2012-02-08 11:11:46 51°14.621 2°29.507 11.5262 0.053609 0.303932 -1.326982
2012-02-08 11:12:46 51°14.773 2°29.678 11.5391 0.052889 0.299732 -1.326982
2012-02-08 11:13:45 51°14.919 2°29.859 11.5477 0.049907 0.282396 -1.326982
2012-02-08 11:14:46 51°15.064 2°30.05 11.556 0.047645 0.269298 -1.326982
2012-02-08 11:15:45 51°15.208 2°30.214 11.5631 0.04487 0.253254 -1.326982
2012-02-08 11:16:46 51°15.362 2°30.387 11.577 0.061834 0.352139 -1.326982
2012-02-08 11:17:46 51°15.502 2°30.594 11.5874 0.048674 0.275264 -1.326982
2012-02-08 11:18:46 51°15.641 2°30.809 11.6013 0.043122 0.243166 -1.326982
2012-02-08 11:19:46 51°15.785 2°31.008 11.6041 0.056076 0.318408 -1.326982
2012-02-08 11:20:45 51°15.926 2°31.19 11.614 0.055357 0.314232 -1.326982
2012-02-08 11:21:46 51°16.072 2°31.39 11.6263 0.059572 0.338885 -1.326982
2012-02-08 11:22:45 51°16.21 2°31.602 11.6339 0.046412 0.262196 -1.326982
2012-02-08 11:23:45 51°16.345 2°31.8 11.6376 0.047234 0.266999 -1.326982
2012-02-08 11:24:46 51°16.454 2°32.044 11.6505 0.046926 0.265207 -1.326982
2012-02-08 11:25:45 51°16.538 2°32.319 11.6585 0.044561 0.251532 -1.326982
2012-02-08 11:26:46 51°16.608 2°32.613 11.663 0.051141 0.289696 -1.326982
2012-02-08 11:27:46 51°16.552 2°32.898 11.6787 0.035514 0.199597 -1.326982
2012-02-08 11:28:46 51°16.437 2°33.142 11.6828 0.047131 0.266457 -1.326982
2012-02-08 11:29:45 51°16.317 2°33.376 11.6872 0.1007 0.584208 -1.326982
2012-02-08 11:30:46 51°16.185 2°33.62 11.6746 0.045898 0.259326 -1.326982
2012-02-08 11:31:46 51°16.052 2°33.861 11.6683 0.101728 0.590389 -1.326982
2012-02-08 11:32:46 51°15.917 2°34.098 11.682 0.061834 0.35233 -1.326982
2012-02-08 11:33:46 51°15.785 2°34.334 11.6914 0.037364 0.210194 -1.326982
2012-02-08 11:34:45 51°15.659 2°34.56 11.6956 0.060497 0.344539 -1.326982
2012-02-08 11:35:46 51°15.577 2°34.833 11.7011 0.041271 0.232683 -1.326982
2012-02-08 11:36:47 51°15.612 2°35.124 11.6903 0.037467 0.210833 -1.326982
2012-02-08 11:37:47 51°15.742 2°35.305 11.7121 0.060909 0.346995 -1.326982
2012-02-08 11:38:45 51°15.889 2°35.456 11.7176 0.05402 0.306638 -1.326982
2012-02-08 11:39:46 51°16.038 2°35.63 11.733 0.051964 0.294692 -1.326982
2012-02-08 11:40:46 51°16.181 2°35.801 11.7424 0.050113 0.283937 -1.326982
2012-02-08 11:41:46 51°16.331 2°35.988 11.7545 0.058647 0.33379 -1.326982
2012-02-08 11:42:46 51°16.471 2°36.186 11.7663 0.047029 0.266033 -1.326982
2012-02-08 11:43:46 51°16.608 2°36.368 11.7718 0.060497 0.344694 -1.326982
2012-02-08 11:44:47 51°16.748 2°36.552 11.7804 0.042402 0.239312 -1.326982
2012-02-08 11:45:46 51°16.889 2°36.743 11.7928 0.060703 0.345903 -1.326982
2012-02-08 11:46:47 51°17.026 2°36.939 11.801 0.047645 0.269661 -1.326982
2012-02-08 11:47:46 51°17.163 2°37.115 11.8115 0.047543 0.269084 -1.326982
2012-02-08 11:48:46 51°17.3 2°37.3 11.8203 0.04086 0.23048 -1.326982
2012-02-08 11:49:46 51°17.436 2°37.486 11.8289 0.043944 0.248252 -1.326982
2012-02-08 11:50:45 51°17.583 2°37.665 11.8404 0.06132 0.349667 -1.326982
2012-02-08 11:51:46 51°17.724 2°37.869 11.8506 0.057824 0.329138 -1.326982
2012-02-08 11:52:45 51°17.862 2°38.048 11.8611 0.043327 0.244706 -1.326982
2012-02-08 11:53:46 51°18.009 2°38.224 11.8719 0.047851 0.270935 -1.326982
2012-02-08 11:54:46 51°18.161 2°38.409 11.8851 0.042299 0.238829 -1.326982
2012-02-08 11:55:46 51°18.313 2°38.566 11.8852 0.051758 0.293674 -1.326982
2012-02-08 11:56:46 51°18.474 2°38.517 11.8909 0.060189 0.343106 -1.326982
2012-02-08 11:57:46 51°18.556 2°38.301 11.8945 0.068311 0.391049 -1.326982
2012-02-08 11:58:46 51°18.545 2°38.043 11.9065 0.041271 0.232883 -1.326982
2012-02-08 11:59:45 51°18.514 2°37.792 11.8603 0.055151 0.313596 -1.326982
2012-02-08 12:00:46 51°18.481 2°37.533 11.8641 0.335499 2.072252 -1.326982
2012-02-08 12:01:45 51°18.453 2°37.284 11.9142 0.048674 0.27582 -1.326982
2012-02-08 12:02:46 51°18.421 2°37.03 11.8425 0.401546 2.508161 -1.326982
2012-02-08 12:03:46 51°18.389 2°36.782 11.9126 0.057104 0.325094 -1.326982
2012-02-08 12:04:46 51°18.36 2°36.534 11.8989 0.068003 0.389319 -1.326982
2012-02-08 12:05:46 51°18.33 2°36.283 11.959 0.048262 0.273465 -1.326982
2012-02-08 12:06:46 51°18.299 2°36.034 11.8946 0.384982 2.39854 -1.326982
2012-02-08 12:07:46 51°18.27 2°35.782 11.9566 0.05803 0.330585 -1.326982
2012-02-08 12:08:46 51°18.242 2°35.537 11.9488 0.048674 0.275897 -1.326982
2012-02-08 12:09:46 51°18.216 2°35.292 11.8814 0.139672 0.823554 -1.326982
2012-02-08 12:10:46 51°18.232 2°35.049 11.9254 0.224 1.352795 -1.326982
2012-02-08 12:11:46 51°18.355 2°34.872 11.9911 0.101111 0.587765 -1.326982
2012-02-08 12:12:47 51°18.53 2°34.824 11.9745 0.065124 0.372386 -1.326982
2012-02-08 12:13:47 51°18.706 2°34.815 11.9871 0.075509 0.434022 -1.326982
2012-02-08 12:14:49 51°18.883 2°34.804 12.0215 0.062142 0.354841 -1.326982
2012-02-08 12:15:47 51°19.061 2°34.802 12.0247 0.068826 0.394331 -1.326982
2012-02-08 12:16:46 51°19.245 2°34.821 12.0352 0.076229 0.438343 -1.326982
2012-02-08 12:17:45 51°19.422 2°34.836 12.0561 0.057104 0.325222 -1.326982
2012-02-08 12:18:49 51°19.598 2°34.842 12.0694 0.070779 0.405947 -1.326982
2012-02-08 12:19:48 51°19.772 2°34.869 12.0778 0.058647 0.334295 -1.326982
2012-02-08 12:20:49 51°19.941 2°34.889 12.0922 0.045795 0.259276 -1.326982
2012-02-08 12:21:48 51°20.118 2°34.898 12.0996 0.069237 0.396865 -1.326982
2012-02-08 12:22:47 51°20.293 2°34.913 12.114 0.058441 0.333156 -1.326982
2012-02-08 12:23:47 51°20.47 2°34.923 12.1194 0.068311 0.391417 -1.326982
2012-02-08 12:24:45 51°20.637 2°34.953 12.1403 0.115096 0.673122 -1.326982
2012-02-08 12:25:46 51°20.754 2°35.173 12.1558 0.056796 0.323503 -1.326982
2012-02-08 12:26:46 51°20.687 2°35.427 12.1596 0.052992 0.301248 -1.326982
2012-02-08 12:27:46 51°20.574 2°35.66 12.1529 0.052478 0.298227 -1.326982
2012-02-08 12:28:46 51°20.458 2°35.896 12.1652 0.040449 0.22843 -1.326982
2012-02-08 12:29:46 51°20.338 2°36.132 12.1689 0.046926 0.265933 -1.326982
2012-02-08 12:30:46 51°20.223 2°36.373 12.1783 0.046412 0.262962 -1.326982
2012-02-08 12:31:45 51°20.117 2°36.618 12.1857 0.049907 0.283303 -1.326982
2012-02-08 12:32:46 51°20.003 2°36.868 12.1861 0.043739 0.247492 -1.326982
2012-02-08 12:33:46 51°19.894 2°37.113 12.1984 0.038804 0.219018 -1.326982
2012-02-08 12:34:46 51°19.783 2°37.358 12.196 0.047954 0.271944 -1.326982
2012-02-08 12:35:46 51°19.678 2°37.613 12.2041 0.047131 0.267236 -1.326982
2012-02-08 12:36:46 51°19.581 2°37.874 12.2147 0.051758 0.294182 -1.326982
2012-02-08 12:37:46 51°19.481 2°38.132 12.2168 0.048879 0.27737 -1.326982
2012-02-08 12:38:46 51°19.38 2°38.387 12.2292 0.046515 0.263671 -1.326982
2012-02-08 12:39:46 51°19.279 2°38.644 12.236 0.032943 0.185471 -1.326982
2012-02-08 12:40:46 51°19.176 2°38.895 12.2424 0.044458 0.251744 -1.326982
2012-02-08 12:41:46 51°19.077 2°39.149 12.2497 0.036645 0.206679 -1.326982
2012-02-08 12:42:46 51°18.983 2°39.41 12.2596 0.031298 0.176122 -1.326982
2012-02-08 12:43:46 51°18.886 2°39.672 12.272 0.036747 0.207284 -1.326982
2012-02-08 12:44:46 51°18.782 2°39.934 12.2723 0.037364 0.210837 -1.326982
2012-02-08 12:45:46 51°18.681 2°40.203 12.2731 0.039935 0.22567 -1.326982
2012-02-08 12:46:46 51°18.568 2°40.49 12.2794 0.039523 0.223308 -1.326982
2012-02-08 12:47:45 51°18.454 2°40.781 12.2861 0.033149 0.186752 -1.326982
2012-02-08 12:48:46 51°18.334 2°41.081 12.29 0.037261 0.210324 -1.326982
2012-02-08 12:49:46 51°18.218 2°41.37 12.2843 0.050319 0.286035 -1.326982
2012-02-08 12:50:46 51°18.102 2°41.661 12.3 0.034794 0.196163 -1.326982
2012-02-08 12:51:46 51°17.986 2°41.945 12.3067 0.036233 0.204476 -1.326982
2012-02-08 12:52:46 51°17.871 2°42.224 12.3033 0.070779 0.406691 -1.326982
2012-02-08 12:53:46 51°17.763 2°42.509 12.3202 0.047954 0.272318 -1.326982
2012-02-08 12:54:46 51°17.655 2°42.796 12.3231 0.080547 0.465079 -1.326982
2012-02-08 12:55:46 51°17.543 2°43.08 12.3142 0.063993 0.366534 -1.326982
2012-02-08 12:56:46 51°17.424 2°43.364 12.3239 0.03757 0.212224 -1.326982
2012-02-08 12:57:46 51°17.306 2°43.652 12.3196 0.049702 0.282598 -1.326982
2012-02-08 12:58:46 51°17.184 2°43.931 12.3345 0.040963 0.231798 -1.326982
2012-02-08 12:59:46 51°17.057 2°44.196 12.3506 0.03829 0.216402 -1.326982
2012-02-08 13:00:45 51°16.928 2°44.448 12.3431 0.037056 0.209321 -1.326982
2012-02-08 13:01:46 51°16.798 2°44.713 12.3207 0.113862 0.66707 -1.326982
2012-02-08 13:02:46 51°16.674 2°44.978 12.3413 0.058647 0.335123 -1.326982
2012-02-08 13:03:46 51°16.549 2°45.24 12.3159 0.054431 0.310404 -1.326982
2012-02-08 13:04:46 51°16.426 2°45.502 12.3494 0.037261 0.210581 -1.326982
2012-02-08 13:05:46 51°16.318 2°45.787 12.368 0.036439 0.205874 -1.326982
2012-02-08 13:06:46 51°16.214 2°46.075 12.3624 0.037261 0.210589 -1.326982
2012-02-08 13:07:46 51°16.104 2°46.359 12.3803 0.042402 0.240309 -1.326982
2012-02-08 13:08:46 51°16.019 2°46.675 12.333 0.114479 0.671254 -1.326982
2012-02-08 13:09:46 51°15.939 2°47.002 12.3737 0.053506 0.305096 -1.326982
2012-02-08 13:10:46 51°15.851 2°47.327 12.3933 0.037364 0.211246 -1.326982
2012-02-08 13:11:46 51°15.773 2°47.656 12.3962 0.038495 0.217785 -1.326982
2012-02-08 13:12:46 51°15.702 2°47.991 12.394 0.033663 0.189995 -1.326982
2012-02-08 13:13:46 51°15.653 2°48.329 12.4102 0.033869 0.191211 -1.326982
2012-02-08 13:14:45 51°15.612 2°48.661 12.4149 0.041785 0.236811 -1.326982
2012-02-08 13:15:46 51°15.571 2°49.005 12.4105 0.102962 0.601175 -1.326982
2012-02-08 13:16:46 51°15.526 2°49.346 12.4258 0.031812 0.179475 -1.326982
2012-02-08 13:17:46 51°15.485 2°49.69 12.4318 0.042094 0.238672 -1.326982
2012-02-08 13:18:46 51°15.467 2°50.041 12.436 0.031915 0.180098 -1.326982
2012-02-08 13:19:46 51°15.45 2°50.389 12.444 0.031812 0.179475 -1.326982
2012-02-08 13:20:46 51°15.426 2°50.736 12.4497 0.038804 0.219653 -1.326982
2012-02-08 13:21:46 51°15.398 2°51.083 12.4578 0.041065 0.23276 -1.326982
2012-02-08 13:22:46 51°15.372 2°51.431 12.4638 0.035514 0.200712 -1.326982
2012-02-08 13:23:46 51°15.355 2°51.782 12.4643 0.051758 0.295133 -1.326982
2012-02-08 13:24:46 51°15.333 2°52.132 12.4714 0.030476 0.17193 -1.326982
2012-02-08 13:25:46 51°15.315 2°52.481 12.478 0.031504 0.1778 -1.326982
2012-02-08 13:26:46 51°15.283 2°52.823 12.483 0.029962 0.168982 -1.326982
2012-02-08 13:27:46 51°15.246 2°53.164 12.4815 0.033149 0.187252 -1.326982
2012-02-08 13:28:46 51°15.198 2°53.504 12.4868 0.038701 0.219148 -1.326982
2012-02-08 13:29:46 51°15.152 2°53.84 12.5015 0.041477 0.235246 -1.326982
2012-02-08 13:30:46 51°15.102 2°54.172 12.4945 0.029859 0.16846 -1.326982
2012-02-08 13:31:46 51°14.995 2°54.461 12.4969 0.044972 0.255589 -1.326982
2012-02-08 13:32:49 51°14.84 2°54.71 12.5045 0.032943 0.186135 -1.326982
2012-02-08 13:33:49 51°14.683 2°54.924 12.4981 0.036131 0.204433 -1.326982
2012-02-08 13:34:49 51°14.505 2°55.07 12.4995 0.05145 0.293512 -1.326982
2012-02-08 13:35:49 51°14.339 2°55.218 12.5064 0.043841 0.249038 -1.326982
2012-02-08 13:36:49 51°14.202 2°55.347 12.5156 0.035 0.197929 -1.326982
2012-02-08 13:37:49 51°14.067 2°55.448 12.5321 0.035616 0.201512 -1.326982
2012-02-08 13:38:49 51°13.926 2°55.55 12.5379 0.035205 0.199154 -1.326982
2012-02-08 13:39:49 51°13.794 2°55.65 12.5406 0.035822 0.20271 -1.326982
2012-02-08 13:40:49 51°13.722 2°55.76 12.5641 0.038187 0.216356 -1.326982
2012-02-08 13:41:49 51°13.674 2°55.857 12.5742 0.040654 0.230635 -1.326982
2012-02-08 13:42:49 51°13.643 2°55.95 12.578 0.04343 0.246748 -1.326982
2012-02-08 13:43:49 51°13.637 2°56.012 12.5807 0.04271 0.242558 -1.326982